• Join FlightAware (Why Join?)
  • Login
  • US Flag 
06:04AM EST


 

Airport Tracker/Info


-or-


 

Live Flight TrackerFlight Track Log ✈ UAL4543 ✈ 24-Apr-2013 ✈ KEWR - KDSM

Flight Track Log - Related Links

Times and Time Zones

All times are in EDT time to prevent confusion due to time zone crossing. See the UAL4543 flight status page for this flight to view local times or setup timezone preferences in your user account.

Time Position Orientation Groundspeed Altitude Reporting Facility
EDT Latitude Longitude Course Direction KTS MPH feet Rate Location/Type
09:31PM 40.6833 -74.1833 287° West 142 163 500  Level New York TRACON
09:32PM 40.6333 -74.2000 194° South 187 215 2,300 1,860 Climbing New York TRACON
09:33PM 40.6667 -74.2667 303° West 224 258 4,300 2,100 Climbing New York TRACON
09:34PM 40.6833 -74.3500 285° West 229 264 6,500 1,860 Climbing New York TRACON
09:35PM 40.7913 -74.6351 284° West  Level FlightAware Approximate
09:35PM 40.7167 -74.4333 298° West 250 288 8,300  Level New York TRACON
09:36PM 40.8166 -74.7552 287° West  Level FlightAware Approximate
09:36PM 40.7333 -74.5167 285° West 265 305 10,100  Level New York TRACON
09:37PM 40.8441 -74.8745 287° West  Level FlightAware Approximate
09:37PM 40.7667 -74.6167 294° West 286 329 11,700  Level New York TRACON
09:39PM 40.7939 -74.7100 291° West 287 330 13,700 1,320 Climbing New York Center
09:40PM 40.8236 -74.8186 290° West 288 331 14,500 720 Climbing New York Center
09:41PM 40.8531 -74.9300 289° West 311 358 15,200 720 Climbing New York Center
09:42PM 40.8864 -75.0472 291° West 334 384 16,000 840 Climbing New York Center
09:43PM 40.9114 -75.1561 287° West 340 391 17,000 960 Climbing New York Center
09:44PM 40.8897 -75.2892 258° West 335 386 18,000 1,020 Climbing New York Center
09:45PM 40.8689 -75.3975 256° West 340 391 19,100 1,260 Climbing New York Center
09:46PM 40.8414 -75.5136 253° West 340 391 20,500 1,440 Climbing New York Center
09:47PM 40.8139 -75.6242 252° West 335 386 22,100 1,320 Climbing New York Center
09:48PM 40.7883 -75.7375 253° West 330 380 23,200 1,020 Climbing New York Center
09:49PM 40.7608 -75.8478 252° West 325 374 24,200 1,020 Climbing New York Center
09:50PM 40.7306 -75.9689 252° West 325 374 25,300 1,020 Climbing New York Center
09:51PM 40.7047 -76.0792 253° West 319 367 26,300 960 Climbing New York Center
09:52PM 40.6789 -76.1892 253° West 319 367 27,300 840 Climbing New York Center
09:53PM 40.6736 -76.3064 267° West 314 361 28,000 840 Climbing New York Center
09:54PM 40.6908 -76.4228 281° West 314 361 29,000 1,080 Climbing New York Center
09:55PM 40.7103 -76.5422 282° West 326 375 30,300 1,320 Climbing New York Center
09:56PM 40.7278 -76.6533 282° West 326 375 31,700 1,380 Climbing New York Center
09:57PM 40.7431 -76.7642 280° West 316 364 33,100 1,200 Climbing New York Center
09:58PM 40.7564 -76.8694 280° West 316 364 34,200 1,080 Climbing New York Center
09:59PM 40.7719 -76.9722 281° West 300 345 35,300 840 Climbing New York Center
10:00PM 40.7872 -77.0750 281° West 293 337 35,900 300 Climbing New York Center
10:01PM 40.8025 -77.1808 281° West 288 331 36,000  Climbing New York Center
10:02PM 40.8222 -77.3142 281° West 298 343 36,000  Level New York Center
10:03PM 40.8392 -77.4203 282° West 314 361 36,000  Level New York Center
10:04PM 40.8553 -77.5425 280° West 332 382 36,000  Level New York Center
10:05PM 40.8803 -77.7406 280° West 365 420 36,000  Level Cleveland Center
10:06PM 40.8958 -77.8636 280° West 365 420 36,000  Level Cleveland Center
10:07PM 40.9156 -77.9919 282° West 360 414 36,000  Level Cleveland Center
10:08PM 40.9306 -78.1150 279° West 355 409 36,000  Level Cleveland Center
10:09PM 40.9458 -78.2381 279° West 350 403 36,000  Level Cleveland Center
10:10PM 40.9628 -78.3614 280° West 350 403 36,000  Level Cleveland Center
10:11PM 40.9778 -78.4872 279° West 350 403 36,000  Level Cleveland Center
10:12PM 40.9925 -78.6133 279° West 350 403 36,000  Level Cleveland Center
10:13PM 41.0092 -78.7339 280° West 350 403 36,000  Level Cleveland Center
10:14PM 41.0214 -78.8575 278° West 350 403 36,000  Level Cleveland Center
10:15PM 41.0358 -78.9783 279° West 350 403 36,000  Level Cleveland Center
10:16PM 41.0497 -79.0992 279° West 344 396 36,000  Level Cleveland Center
10:17PM 41.0617 -79.2172 278° West 339 390 36,000  Level Cleveland Center
10:18PM 41.0778 -79.3381 280° West 334 384 36,000  Level Cleveland Center
10:19PM 41.0894 -79.4592 277° West 334 384 36,000  Level Cleveland Center
10:20PM 41.1050 -79.5800 280° West 334 384 36,000  Level Cleveland Center
10:21PM 41.1164 -79.6956 277° West 334 384 36,000  Level Cleveland Center
10:22PM 41.1297 -79.8139 279° West 334 384 36,000  Level Cleveland Center
10:23PM 41.1411 -79.9297 277° West 334 384 36,000  Level Cleveland Center
10:24PM 41.1542 -80.0481 278° West 334 384 36,000  Level Cleveland Center
10:25PM 41.1692 -80.1667 280° West 334 384 36,000  Level Cleveland Center
10:26PM 41.1800 -80.2906 277° West 334 384 36,000  Level Cleveland Center
10:27PM 41.1928 -80.4119 278° West 334 384 36,000  Level Cleveland Center
10:28PM 41.2053 -80.5444 277° West 329 379 36,000  Level Cleveland Center
10:29PM 41.2158 -80.6603 277° West 329 379 36,000  Level Cleveland Center
10:30PM 41.2281 -80.7792 278° West 329 379 36,000  Level Cleveland Center
10:31PM 41.2403 -80.9033 277° West 334 384 36,000  Level Cleveland Center
10:32PM 41.2525 -81.0250 278° West 334 384 36,000  Level Cleveland Center
10:33PM 41.2644 -81.1467 277° West 339 390 36,000  Level Cleveland Center
10:34PM 41.2761 -81.2739 277° West 345 397 36,000  Level Cleveland Center
10:35PM 41.2878 -81.4011 277° West 350 403 36,000  Level Cleveland Center
10:36PM 41.3017 -81.5200 279° West 350 403 36,000  Level Cleveland Center
10:37PM 41.3131 -81.6475 277° West 350 403 36,000  Level Cleveland Center
10:38PM 41.3242 -81.7692 277° West 350 403 36,000  Level Cleveland Center
10:39PM 41.3353 -81.8939 277° West 350 403 36,000  Level Cleveland Center
10:40PM 41.3464 -82.0214 277° West 350 403 36,000  Level Cleveland Center
10:41PM 41.3553 -82.1433 276° West 350 403 36,000  Level Cleveland Center
10:42PM 41.3639 -82.2653 275° West 350 403 36,000  Level Cleveland Center
10:43PM 41.3703 -82.3900 274° West 344 396 36,000  Level Cleveland Center
10:44PM 41.3767 -82.5119 274° West 337 388 36,000  Level Cleveland Center
10:45PM 41.3850 -82.6367 275° West 337 388 36,000  Level Cleveland Center
10:46PM 41.3914 -82.7447 275° West 337 388 36,000  Level Cleveland Center
10:47PM 41.3972 -82.8697 274° West 337 388 36,000  Level Cleveland Center
10:48PM 41.4031 -82.9917 274° West 337 388 36,000  Level Cleveland Center
10:49PM 41.4106 -83.1192 275° West 337 388 36,000  Level Cleveland Center
10:50PM 41.4181 -83.2553 274° West 342 394 36,000  Level Cleveland Center
10:51PM 41.4233 -83.3800 273° West 347 399 36,000  Level Cleveland Center
10:52PM 41.4286 -83.5078 273° West 347 399 36,000  Level Cleveland Center
10:53PM 41.4356 -83.6328 274° West 347 399 36,000  Level Cleveland Center
10:54PM 41.4406 -83.7603 273° West 347 399 36,000  Level Cleveland Center
10:55PM 41.4475 -83.8856 274° West 347 399 36,000  Level Cleveland Center
10:56PM 41.4519 -84.0131 273° West 347 399 36,000  Level Cleveland Center
10:57PM 41.4586 -84.1408 274° West 347 399 36,000  Level Cleveland Center
10:59PM 41.4697 -84.3569 274° West 348 400 36,000  Level Chicago Center
11:00PM 41.4742 -84.4861 273° West 348 400 36,000  Level Chicago Center
11:01PM 41.4792 -84.6153 273° West 350 403 36,000  Level Chicago Center
11:02PM 41.4842 -84.7450 273° West 350 403 36,000  Level Chicago Center
11:03PM 41.4897 -84.8753 273° West 352 405 36,000  Level Chicago Center
11:04PM 41.4944 -85.0075 273° West 355 409 36,000  Level Chicago Center
11:05PM 41.4981 -85.1381 272° West 352 405 36,000  Level Chicago Center
11:06PM 41.5033 -85.2722 273° West 358 412 36,000  Level Chicago Center
11:07PM 41.5081 -85.4067 273° West 358 412 36,000  Level Chicago Center
11:08PM 41.5122 -85.5411 272° West 356 410 36,000  Level Chicago Center
11:09PM 41.5158 -85.7019 272° West 358 412 36,000  Level Chicago Center
11:10PM 41.5194 -85.8367 272° West 361 415 36,000  Level Chicago Center
11:11PM 41.5233 -85.9697 272° West 361 415 36,000  Level Chicago Center
11:12PM 41.5261 -86.1042 272° West 361 415 36,000  Level Chicago Center
11:13PM 41.5289 -86.2378 272° West 362 417 36,000  Level Chicago Center
11:14PM 41.5314 -86.3725 271° West 364 419 36,000  Level Chicago Center
11:15PM 41.5339 -86.5069 271° West 364 419 36,000  Level Chicago Center
11:16PM 41.5344 -86.6428 270° West 366 421 36,000  Level Chicago Center
11:17PM 41.5367 -86.7944 271° West 365 420 36,000  Level Chicago Center
11:18PM 41.5383 -86.9292 271° West 366 421 36,000  Level Chicago Center
11:20PM 41.5403 -87.0636 271° West 365 420 36,000  Level Chicago Center
11:21PM 41.5414 -87.1986 271° West 366 421 36,000  Level Chicago Center
11:22PM 41.5419 -87.3336 270° West 366 421 36,000  Level Chicago Center
11:23PM 41.5433 -87.4678 271° West 366 421 36,000  Level Chicago Center
11:24PM 41.5450 -87.6019 271° West 365 420 36,000  Level Chicago Center
11:25PM 41.5444 -87.7639 270° West 368 423 36,000  Level Chicago Center
11:26PM 41.5456 -87.8967 271° West 364 419 36,000  Level Chicago Center
11:27PM 41.5442 -88.0283 269° West 364 419 36,000  Level Chicago Center
11:28PM 41.5458 -88.1592 271° West 363 418 36,000  Level Chicago Center
11:29PM 41.5461 -88.2922 270° West 365 420 36,000  Level Chicago Center
11:30PM 41.5497 -88.4289 272° West 370 426 36,000  Level Chicago Center
11:31PM 41.5525 -88.5903 271° West 365 420 36,000  Level Chicago Center
11:32PM 41.5550 -88.7283 271° West 371 427 36,000  Level Chicago Center
11:33PM 41.5581 -88.8631 272° West 368 423 36,000  Level Chicago Center
11:34PM 41.5597 -89.0006 271° West 370 426 36,000  Level Chicago Center
11:35PM 41.5619 -89.1372 271° West 370 426 36,000  Level Chicago Center
11:36PM 41.5639 -89.2744 271° West 372 428 36,000  Level Chicago Center
11:37PM 41.5656 -89.4108 271° West 369 425 36,000  Level Chicago Center
11:38PM 41.5669 -89.5536 271° West 369 425 36,000  Level Chicago Center
11:39PM 41.5689 -89.6894 271° West 367 422 36,000  Level Chicago Center
11:40PM 41.5692 -89.8264 270° West 369 425 36,000  Level Chicago Center
11:41PM 41.5717 -89.9600 271° West 363 418 36,000  Level Chicago Center
11:42PM 41.5708 -90.0969 270° West 369 425 36,000  Level Chicago Center
11:43PM 41.5733 -90.2317 271° West 367 422 36,000  Level Chicago Center
11:44PM 41.5717 -90.4008 269° West 379 436 36,000  Level Chicago Center
11:45PM 41.5722 -90.5347 270° West 366 421 36,000  Level Chicago Center
11:46PM 41.5719 -90.6744 270° West 365 420 36,000  Level Chicago Center
11:47PM 41.5725 -90.8097 270° West 366 421 36,000  Level Chicago Center
11:48PM 41.5722 -90.9439 270° West 365 420 36,000  Level Chicago Center
11:49PM 41.5722 -91.0781 270° West 363 418 36,000 -480 Level Chicago Center
11:50PM 41.5717 -91.2103 270° West 359 413 35,100 -1,440 Descending Chicago Center
11:51PM 41.5706 -91.3389 269° West 351 404 33,200 -1,920 Descending Chicago Center
11:52PM 41.5697 -91.4669 270° West 348 400 31,300 -1,920 Descending Chicago Center
11:53PM 41.5694 -91.5969 270° West 351 404 29,400 -1,920 Descending Chicago Center
11:54PM 41.5689 -91.7264 270° West 350 403 27,500 -1,920 Descending Chicago Center
11:55PM 41.5661 -91.8625 268° West 355 409 25,500 -1,920 Descending Chicago Center
11:56PM 41.5642 -92.0019 269° West 365 420 23,700 -1,980 Descending Chicago Center
11:57PM 41.5625 -92.1708 269° West 374 430 21,500 -2,040 Descending Chicago Center
11:58PM 41.5608 -92.2972 269° West 350 403 19,700 -1,800 Descending Chicago Center
11:59PM 41.5586 -92.4203 269° West 335 386 17,900 -1,740 Descending Chicago Center
12:00AM 41.5581 -92.5436 270° West 332 382 16,200 -1,800 Descending Chicago Center
12:01AM 41.5539 -92.6625 267° West 326 375 14,300 -1,920 Descending Chicago Center
12:01AM 41.5508 -92.7061 265° West 305 351 13,700 -1,860 Descending Minneapolis Center
12:02AM 41.5433 -92.8136 265° West 293 337 11,900 -1,500 Descending Minneapolis Center
12:03AM 41.5356 -92.9117 264° West 263 303 10,700 -1,140 Descending Minneapolis Center
12:04AM 41.5375 -92.9603 273° West 237 273 10,000 -1,020 Descending Minneapolis Center
12:04AM 41.5294 -92.9969 254° West 234 269 9,700 -1,020 Descending Minneapolis Center
12:05AM 41.5303 -93.0475 271° West 233 268 9,000 -1,020 Descending Minneapolis Center
12:06AM 41.5219 -93.0833 253° West 235 270 8,700 -1,140 Descending Minneapolis Center
12:06AM 41.5225 -93.1317 271° West 229 264 7,900 -1,020 Descending Minneapolis Center
12:07AM 41.5156 -93.1642 254° West 223 257 7,700 -1,020 Descending Minneapolis Center
12:07AM 41.5167 -93.2128 272° West 224 258 6,900 -1,200 Descending Minneapolis Center
12:08AM 41.5089 -93.2533 256° West 224 258 6,500 -1,200 Descending Minneapolis Center
12:08AM 41.5108 -93.2942 274° West 222 255 5,700 -1,380 Descending Minneapolis Center
12:09AM 41.5019 -93.3347 254° West 221 254 5,100 -1,380 Descending Minneapolis Center
12:09AM 41.5028 -93.3756 272° West 222 255 4,300 -1,200 Descending Minneapolis Center
12:10AM 41.4956 -93.4169 257° West 223 257 3,900 -1,200 Descending Minneapolis Center
12:10AM 41.4972 -93.4650 273° West 224 258 3,100 -1,020 Descending Minneapolis Center
12:11AM 41.4858 -93.5317 257° West 226 260 2,500 -600 Descending Minneapolis Center
12:11AM 41.4889 -93.5464 285° West 223 257 2,500 -120 Level Minneapolis Center
12:12AM 41.4906 -93.5939 273° West 165 190 2,400 -540 Descending Minneapolis Center
12:12AM 41.5042 -93.5950 357° North 142 163 2,000 -960 Descending Minneapolis Center
12:13AM 41.5181 -93.6342 295° West 121 139 1,300 -540 Descending Minneapolis Center
12:14AM 41.5417 -93.6683 313° West 119 137 1,000 -300 Descending Minneapolis Center